Weidman, Michigan
Current Conditions -  °F | °C
As of 11:38 AM on Friday 24 Oct 2014 (Local Time) from KMOP Reporting Station
Overcast Overcast  
Wind Chill: 55°   Ceiling: 2300
Heat Index: 55°   Visibility: 7mi
Dew Point: 47°   Wind: 3mph
Humidity: 75%   Direction: 220°SW
Pressure: 30.03"   Gusts: NA
Location:  43.69°N, 84.97°W
Report Text: KMOP 241538Z AUTO 22003KT 7SM SCT017 OVC023 13/08 A3003 RMK AO2 T01250081
Loading
Personal Weather Stations






























Interactive Weather Map
Tropical Storm Tracking
New forecast layout! Learn more

10-Day Weather Forecast

Advertisements
Track Severe Weather on mobile